Terminal Aerodrome Forecast
Issued by NWS Huntsville, AL

Home | Current Version | Previous Version | Text Only | Print | Product List | Glossary On
Versions: 1 2 3 4 5 6 7 8 9 10 11 12 13 14 15 16 17 18 19 20 21 22 23 24 25 26 27 28 29 30 31 32 33 34
000
FTUS44 KHUN 020520
TAFMSL
TAF
KMSL 020520Z 0206/0306 VRB05KT P6SM SKC
     FM021200 17009KT P6SM SCT040 BKN100
     FM021600 17009KT P6SM VCTS SCT030CB OVC070
     FM030500 20010G15KT 5SM -TSRA OVC030CB=

USA.gov is the U.S. government's official web portal to all federal, state and local government web resources and services.